sensor_id;sensor_type;location;lat;lon;timestamp;temperature;humidity
71175;DHT22;58876;51.994;4.472;2023-10-09T00:01:02;17.81;79.99
71175;DHT22;58876;51.994;4.472;2023-10-09T00:03:30;17.72;80.29
71175;DHT22;58876;51.994;4.472;2023-10-09T00:05:55;17.71;80.63
71175;DHT22;58876;51.994;4.472;2023-10-09T00:08:21;17.74;80.57
71175;DHT22;58876;51.994;4.472;2023-10-09T00:10:48;17.75;80.82
71175;DHT22;58876;51.994;4.472;2023-10-09T00:13:25;17.78;80.81
71175;DHT22;58876;51.994;4.472;2023-10-09T00:15:54;17.75;80.88
71175;DHT22;58876;51.994;4.472;2023-10-09T00:18:25;17.64;81.42
71175;DHT22;58876;51.994;4.472;2023-10-09T00:20:55;17.77;81.38
71175;DHT22;58876;51.994;4.472;2023-10-09T00:23:27;17.78;81.40
71175;DHT22;58876;51.994;4.472;2023-10-09T00:25:53;17.81;81.36
71175;DHT22;58876;51.994;4.472;2023-10-09T00:28:39;17.88;81.48
71175;DHT22;58876;51.994;4.472;2023-10-09T00:31:15;17.81;81.59
71175;DHT22;58876;51.994;4.472;2023-10-09T00:33:42;17.77;82.08
71175;DHT22;58876;51.994;4.472;2023-10-09T00:36:09;17.74;82.30
71175;DHT22;58876;51.994;4.472;2023-10-09T00:38:36;17.85;82.31
71175;DHT22;58876;51.994;4.472;2023-10-09T00:41:04;17.82;82.30
71175;DHT22;58876;51.994;4.472;2023-10-09T00:43:32;17.79;82.47
71175;DHT22;58876;51.994;4.472;2023-10-09T00:46:02;17.70;83.03
71175;DHT22;58876;51.994;4.472;2023-10-09T00:48:59;17.77;83.14
71175;DHT22;58876;51.994;4.472;2023-10-09T00:51:28;17.71;83.38
71175;DHT22;58876;51.994;4.472;2023-10-09T00:54:01;17.74;83.56
71175;DHT22;58876;51.994;4.472;2023-10-09T00:56:34;17.93;83.01
71175;DHT22;58876;51.994;4.472;2023-10-09T00:59:15;18.05;82.53
71175;DHT22;58876;51.994;4.472;2023-10-09T01:01:42;18.16;82.28
71175;DHT22;58876;51.994;4.472;2023-10-09T01:04:21;18.20;82.33
71175;DHT22;58876;51.994;4.472;2023-10-09T01:06:47;18.28;82.30
71175;DHT22;58876;51.994;4.472;2023-10-09T01:09:29;18.32;82.01
71175;DHT22;58876;51.994;4.472;2023-10-09T01:12:01;18.34;82.20
71175;DHT22;58876;51.994;4.472;2023-10-09T01:14:27;18.32;82.24
71175;DHT22;58876;51.994;4.472;2023-10-09T01:16:53;18.28;82.33
71175;DHT22;58876;51.994;4.472;2023-10-09T01:19:20;18.30;82.50
71175;DHT22;58876;51.994;4.472;2023-10-09T01:21:52;18.36;82.46
71175;DHT22;58876;51.994;4.472;2023-10-09T01:24:18;18.34;82.43
71175;DHT22;58876;51.994;4.472;2023-10-09T01:26:48;18.36;82.53
71175;DHT22;58876;51.994;4.472;2023-10-09T01:31:45;18.34;82.53
71175;DHT22;58876;51.994;4.472;2023-10-09T01:34:28;18.39;82.37
71175;DHT22;58876;51.994;4.472;2023-10-09T01:37:13;18.36;82.42
71175;DHT22;58876;51.994;4.472;2023-10-09T01:39:55;18.41;82.57
71175;DHT22;58876;51.994;4.472;2023-10-09T01:42:25;18.44;82.51
71175;DHT22;58876;51.994;4.472;2023-10-09T01:45:03;18.44;82.31
71175;DHT22;58876;51.994;4.472;2023-10-09T01:47:58;18.40;82.16
71175;DHT22;58876;51.994;4.472;2023-10-09T01:50:24;18.49;82.35
71175;DHT22;58876;51.994;4.472;2023-10-09T01:52:56;18.47;82.12
71175;DHT22;58876;51.994;4.472;2023-10-09T01:55:22;18.49;82.27
71175;DHT22;58876;51.994;4.472;2023-10-09T01:57:55;18.41;82.44
71175;DHT22;58876;51.994;4.472;2023-10-09T02:00:27;18.43;82.54
71175;DHT22;58876;51.994;4.472;2023-10-09T02:02:54;18.36;82.41
71175;DHT22;58876;51.994;4.472;2023-10-09T02:05:20;18.33;82.60
71175;DHT22;58876;51.994;4.472;2023-10-09T02:07:45;18.29;82.91
71175;DHT22;58876;51.994;4.472;2023-10-09T02:10:18;18.25;82.94
71175;DHT22;58876;51.994;4.472;2023-10-09T02:13:00;18.22;83.14
71175;DHT22;58876;51.994;4.472;2023-10-09T02:15:33;18.30;82.92
71175;DHT22;58876;51.994;4.472;2023-10-09T02:18:14;18.32;82.47
71175;DHT22;58876;51.994;4.472;2023-10-09T02:20:45;18.39;82.72
71175;DHT22;58876;51.994;4.472;2023-10-09T02:23:12;18.33;82.66
71175;DHT22;58876;51.994;4.472;2023-10-09T02:25:41;18.34;82.66
71175;DHT22;58876;51.994;4.472;2023-10-09T02:28:09;18.19;83.23
71175;DHT22;58876;51.994;4.472;2023-10-09T02:30:43;18.10;83.45
71175;DHT22;58876;51.994;4.472;2023-10-09T02:33:16;18.05;83.70
71175;DHT22;58876;51.994;4.472;2023-10-09T02:35:59;18.01;83.85
71175;DHT22;58876;51.994;4.472;2023-10-09T02:38:30;18.19;83.46
71175;DHT22;58876;51.994;4.472;2023-10-09T02:40:59;18.22;82.99
71175;DHT22;58876;51.994;4.472;2023-10-09T02:43:31;18.32;82.83
71175;DHT22;58876;51.994;4.472;2023-10-09T02:46:11;18.28;82.68
71175;DHT22;58876;51.994;4.472;2023-10-09T02:48:44;18.30;82.98
71175;DHT22;58876;51.994;4.472;2023-10-09T02:51:23;18.28;82.60
71175;DHT22;58876;51.994;4.472;2023-10-09T02:53:56;18.33;82.61
71175;DHT22;58876;51.994;4.472;2023-10-09T02:56:23;18.40;82.43
71175;DHT22;58876;51.994;4.472;2023-10-09T02:58:58;18.51;82.39
71175;DHT22;58876;51.994;4.472;2023-10-09T03:01:32;18.40;82.49
71175;DHT22;58876;51.994;4.472;2023-10-09T03:03:59;18.32;82.82
71175;DHT22;58876;51.994;4.472;2023-10-09T03:06:28;18.34;83.32
71175;DHT22;58876;51.994;4.472;2023-10-09T03:08:57;18.33;83.37
71175;DHT22;58876;51.994;4.472;2023-10-09T03:11:23;18.30;83.42
71175;DHT22;58876;51.994;4.472;2023-10-09T03:13:52;18.36;83.35
71175;DHT22;58876;51.994;4.472;2023-10-09T03:16:18;18.40;83.31
71175;DHT22;58876;51.994;4.472;2023-10-09T03:18:52;18.41;83.29
71175;DHT22;58876;51.994;4.472;2023-10-09T03:21:18;18.43;83.24
71175;DHT22;58876;51.994;4.472;2023-10-09T03:23:46;18.39;83.27
71175;DHT22;58876;51.994;4.472;2023-10-09T03:26:18;18.47;83.43
71175;DHT22;58876;51.994;4.472;2023-10-09T03:28:48;18.36;83.50
71175;DHT22;58876;51.994;4.472;2023-10-09T03:31:14;18.37;83.43
71175;DHT22;58876;51.994;4.472;2023-10-09T03:33:40;18.47;83.33
71175;DHT22;58876;51.994;4.472;2023-10-09T03:36:06;18.39;83.60
71175;DHT22;58876;51.994;4.472;2023-10-09T03:38:35;18.49;83.13
71175;DHT22;58876;51.994;4.472;2023-10-09T03:41:02;18.44;83.45
71175;DHT22;58876;51.994;4.472;2023-10-09T03:43:32;18.47;83.30
71175;DHT22;58876;51.994;4.472;2023-10-09T03:46:03;18.46;83.33
71175;DHT22;58876;51.994;4.472;2023-10-09T03:48:30;18.47;83.27
71175;DHT22;58876;51.994;4.472;2023-10-09T03:51:02;18.40;83.62
71175;DHT22;58876;51.994;4.472;2023-10-09T03:53:35;18.37;84.02
71175;DHT22;58876;51.994;4.472;2023-10-09T03:56:08;18.28;84.37
71175;DHT22;58876;51.994;4.472;2023-10-09T03:58:42;18.36;83.75
71175;DHT22;58876;51.994;4.472;2023-10-09T04:01:14;18.41;83.63
71175;DHT22;58876;51.994;4.472;2023-10-09T04:03:51;18.23;84.11
71175;DHT22;58876;51.994;4.472;2023-10-09T04:06:23;18.26;83.72
71175;DHT22;58876;51.994;4.472;2023-10-09T04:08:54;18.23;83.85
71175;DHT22;58876;51.994;4.472;2023-10-09T04:11:20;18.32;83.50
71175;DHT22;58876;51.994;4.472;2023-10-09T04:13:49;18.28;83.27
71175;DHT22;58876;51.994;4.472;2023-10-09T04:16:19;18.37;83.14
71175;DHT22;58876;51.994;4.472;2023-10-09T04:19:00;18.51;82.24
71175;DHT22;58876;51.994;4.472;2023-10-09T04:21:32;18.60;81.46
71175;DHT22;58876;51.994;4.472;2023-10-09T04:24:01;18.53;81.62
71175;DHT22;58876;51.994;4.472;2023-10-09T04:26:45;18.60;81.07
71175;DHT22;58876;51.994;4.472;2023-10-09T04:29:12;18.68;80.49
71175;DHT22;58876;51.994;4.472;2023-10-09T04:31:58;18.72;80.18
71175;DHT22;58876;51.994;4.472;2023-10-09T04:34:27;18.75;79.93
71175;DHT22;58876;51.994;4.472;2023-10-09T04:37:13;18.64;80.13
71175;DHT22;58876;51.994;4.472;2023-10-09T04:39:40;18.59;80.44
71175;DHT22;58876;51.994;4.472;2023-10-09T04:42:26;18.47;80.91
71175;DHT22;58876;51.994;4.472;2023-10-09T04:45:06;18.44;81.26
71175;DHT22;58876;51.994;4.472;2023-10-09T04:47:32;18.47;81.04
71175;DHT22;58876;51.994;4.472;2023-10-09T04:50:08;18.51;80.89
71175;DHT22;58876;51.994;4.472;2023-10-09T04:52:36;18.61;80.73
71175;DHT22;58876;51.994;4.472;2023-10-09T04:55:01;18.67;80.34
71175;DHT22;58876;51.994;4.472;2023-10-09T04:57:30;18.70;80.32
71175;DHT22;58876;51.994;4.472;2023-10-09T05:00:07;18.56;80.89
71175;DHT22;58876;51.994;4.472;2023-10-09T05:02:51;18.44;81.05
71175;DHT22;58876;51.994;4.472;2023-10-09T05:05:27;18.33;81.55
71175;DHT22;58876;51.994;4.472;2023-10-09T05:08:17;18.40;81.44
71175;DHT22;58876;51.994;4.472;2023-10-09T05:10:56;18.50;81.14
71175;DHT22;58876;51.994;4.472;2023-10-09T05:13:26;18.41;81.43
71175;DHT22;58876;51.994;4.472;2023-10-09T05:18:52;18.61;80.97
71175;DHT22;58876;51.994;4.472;2023-10-09T05:21:34;18.64;80.52
71175;DHT22;58876;51.994;4.472;2023-10-09T05:24:02;18.59;80.76
71175;DHT22;58876;51.994;4.472;2023-10-09T05:26:38;18.53;80.64
71175;DHT22;58876;51.994;4.472;2023-10-09T05:29:26;18.49;80.69
71175;DHT22;58876;51.994;4.472;2023-10-09T05:31:59;18.49;80.45
71175;DHT22;58876;51.994;4.472;2023-10-09T05:34:45;18.57;80.13
71175;DHT22;58876;51.994;4.472;2023-10-09T05:37:26;18.70;79.77
71175;DHT22;58876;51.994;4.472;2023-10-09T05:39:59;18.78;79.59
71175;DHT22;58876;51.994;4.472;2023-10-09T05:42:32;18.90;79.22
71175;DHT22;58876;51.994;4.472;2023-10-09T05:45:08;18.99;78.73
71175;DHT22;58876;51.994;4.472;2023-10-09T05:50:31;19.01;78.81
71175;DHT22;58876;51.994;4.472;2023-10-09T05:53:01;19.05;78.76
71175;DHT22;58876;51.994;4.472;2023-10-09T05:55:28;19.04;78.63
71175;DHT22;58876;51.994;4.472;2023-10-09T05:58:03;18.94;78.56
71175;DHT22;58876;51.994;4.472;2023-10-09T06:00:28;18.90;78.69
71175;DHT22;58876;51.994;4.472;2023-10-09T06:03:12;18.92;78.54
71175;DHT22;58876;51.994;4.472;2023-10-09T06:05:44;18.92;78.71
71175;DHT22;58876;51.994;4.472;2023-10-09T06:08:22;18.88;78.61
71175;DHT22;58876;51.994;4.472;2023-10-09T06:11:07;18.81;78.72
71175;DHT22;58876;51.994;4.472;2023-10-09T06:13:57;18.90;78.44
71175;DHT22;58876;51.994;4.472;2023-10-09T06:16:36;18.85;78.22
71175;DHT22;58876;51.994;4.472;2023-10-09T06:19:13;18.94;78.00
71175;DHT22;58876;51.994;4.472;2023-10-09T06:21:45;18.91;78.17
71175;DHT22;58876;51.994;4.472;2023-10-09T06:24:20;18.91;78.09
71175;DHT22;58876;51.994;4.472;2023-10-09T06:26:49;19.02;77.77
71175;DHT22;58876;51.994;4.472;2023-10-09T06:29:27;19.14;77.59
71175;DHT22;58876;51.994;4.472;2023-10-09T06:32:06;19.04;77.60
71175;DHT22;58876;51.994;4.472;2023-10-09T06:34:44;18.97;77.97
71175;DHT22;58876;51.994;4.472;2023-10-09T06:37:20;19.01;78.02
71175;DHT22;58876;51.994;4.472;2023-10-09T06:39:56;19.07;77.88
71175;DHT22;58876;51.994;4.472;2023-10-09T06:42:26;19.12;77.79
71175;DHT22;58876;51.994;4.472;2023-10-09T06:45:09;19.16;77.59
71175;DHT22;58876;51.994;4.472;2023-10-09T06:47:40;19.20;77.70
71175;DHT22;58876;51.994;4.472;2023-10-09T06:50:12;19.25;77.75
71175;DHT22;58876;51.994;4.472;2023-10-09T06:52:58;19.29;77.54
71175;DHT22;58876;51.994;4.472;2023-10-09T06:55:44;19.40;77.63
71175;DHT22;58876;51.994;4.472;2023-10-09T06:58:18;19.49;77.46
71175;DHT22;58876;51.994;4.472;2023-10-09T07:00:49;19.46;77.04
71175;DHT22;58876;51.994;4.472;2023-10-09T07:03:25;19.43;77.32
71175;DHT22;58876;51.994;4.472;2023-10-09T07:06:05;19.43;77.21
71175;DHT22;58876;51.994;4.472;2023-10-09T07:08:35;19.36;77.40
71175;DHT22;58876;51.994;4.472;2023-10-09T07:11:09;19.40;77.42
71175;DHT22;58876;51.994;4.472;2023-10-09T07:14:17;19.45;77.47
71175;DHT22;58876;51.994;4.472;2023-10-09T07:17:15;19.36;77.77
71175;DHT22;58876;51.994;4.472;2023-10-09T07:19:59;19.42;77.96
71175;DHT22;58876;51.994;4.472;2023-10-09T07:22:42;19.38;78.10
71175;DHT22;58876;51.994;4.472;2023-10-09T07:25:22;19.43;78.45
71175;DHT22;58876;51.994;4.472;2023-10-09T07:28:08;19.38;78.48
71175;DHT22;58876;51.994;4.472;2023-10-09T07:30:46;19.28;79.04
71175;DHT22;58876;51.994;4.472;2023-10-09T07:33:12;19.20;79.72
71175;DHT22;58876;51.994;4.472;2023-10-09T07:35:41;19.32;79.79
71175;DHT22;58876;51.994;4.472;2023-10-09T07:38:07;19.33;79.68
71175;DHT22;58876;51.994;4.472;2023-10-09T07:40:40;19.30;80.21
71175;DHT22;58876;51.994;4.472;2023-10-09T07:43:28;19.39;79.89
71175;DHT22;58876;51.994;4.472;2023-10-09T07:46:02;19.43;79.85
71175;DHT22;58876;51.994;4.472;2023-10-09T07:48:59;19.45;80.05
71175;DHT22;58876;51.994;4.472;2023-10-09T07:51:35;19.48;79.70
71175;DHT22;58876;51.994;4.472;2023-10-09T07:54:00;19.50;79.65
71175;DHT22;58876;51.994;4.472;2023-10-09T07:56:39;19.53;79.56
71175;DHT22;58876;51.994;4.472;2023-10-09T07:59:09;19.59;79.24
71175;DHT22;58876;51.994;4.472;2023-10-09T08:01:41;19.74;79.12
71175;DHT22;58876;51.994;4.472;2023-10-09T08:04:28;19.88;78.72
71175;DHT22;58876;51.994;4.472;2023-10-09T08:07:08;19.94;78.35
71175;DHT22;58876;51.994;4.472;2023-10-09T08:09:35;19.91;78.36
71175;DHT22;58876;51.994;4.472;2023-10-09T08:12:12;19.93;78.34
71175;DHT22;58876;51.994;4.472;2023-10-09T08:14:57;19.94;78.36
71175;DHT22;58876;51.994;4.472;2023-10-09T08:17:47;20.10;78.38
71175;DHT22;58876;51.994;4.472;2023-10-09T08:20:23;20.22;77.91
71175;DHT22;58876;51.994;4.472;2023-10-09T08:22:55;20.31;77.89
71175;DHT22;58876;51.994;4.472;2023-10-09T08:25:25;20.56;77.49
71175;DHT22;58876;51.994;4.472;2023-10-09T08:28:09;20.58;77.08
71175;DHT22;58876;51.994;4.472;2023-10-09T08:30:53;20.75;76.82
71175;DHT22;58876;51.994;4.472;2023-10-09T08:33:18;20.93;76.57
71175;DHT22;58876;51.994;4.472;2023-10-09T08:35:50;20.85;76.64
71175;DHT22;58876;51.994;4.472;2023-10-09T08:38:17;20.85;76.11
71175;DHT22;58876;51.994;4.472;2023-10-09T08:40:50;20.99;76.25
71175;DHT22;58876;51.994;4.472;2023-10-09T08:43:18;21.10;75.97
71175;DHT22;58876;51.994;4.472;2023-10-09T08:48:14;21.28;75.03
71175;DHT22;58876;51.994;4.472;2023-10-09T08:50:47;21.33;74.45
71175;DHT22;58876;51.994;4.472;2023-10-09T08:53:15;21.44;74.13
71175;DHT22;58876;51.994;4.472;2023-10-09T08:55:42;21.47;73.54
71175;DHT22;58876;51.994;4.472;2023-10-09T08:58:09;21.50;72.64
71175;DHT22;58876;51.994;4.472;2023-10-09T09:00:46;21.45;72.45
71175;DHT22;58876;51.994;4.472;2023-10-09T09:03:14;21.50;72.25
71175;DHT22;58876;51.994;4.472;2023-10-09T09:05:48;21.61;70.42
71175;DHT22;58876;51.994;4.472;2023-10-09T09:08:25;21.48;70.40
71175;DHT22;58876;51.994;4.472;2023-10-09T09:11:02;21.54;69.71
71175;DHT22;58876;51.994;4.472;2023-10-09T09:16:30;21.50;70.59
71175;DHT22;58876;51.994;4.472;2023-10-09T09:18:57;21.44;71.06
71175;DHT22;58876;51.994;4.472;2023-10-09T09:21:29;21.44;71.72
71175;DHT22;58876;51.994;4.472;2023-10-09T09:23:57;21.58;71.31
71175;DHT22;58876;51.994;4.472;2023-10-09T09:26:37;21.54;71.79
71175;DHT22;58876;51.994;4.472;2023-10-09T09:29:04;21.59;71.22
71175;DHT22;58876;51.994;4.472;2023-10-09T09:31:31;21.71;71.25
71175;DHT22;58876;51.994;4.472;2023-10-09T09:34:04;21.75;71.37
71175;DHT22;58876;51.994;4.472;2023-10-09T09:36:49;21.94;69.87
71175;DHT22;58876;51.994;4.472;2023-10-09T09:39:36;21.95;69.73
71175;DHT22;58876;51.994;4.472;2023-10-09T09:42:02;22.05;69.32
71175;DHT22;58876;51.994;4.472;2023-10-09T09:44:34;22.08;68.35
71175;DHT22;58876;51.994;4.472;2023-10-09T09:47:09;22.15;69.15
71175;DHT22;58876;51.994;4.472;2023-10-09T09:49:41;22.12;68.25
71175;DHT22;58876;51.994;4.472;2023-10-09T09:52:07;22.06;67.21
71175;DHT22;58876;51.994;4.472;2023-10-09T09:54:40;22.06;67.98
71175;DHT22;58876;51.994;4.472;2023-10-09T09:57:07;21.95;67.13
71175;DHT22;58876;51.994;4.472;2023-10-09T09:59:38;21.86;67.49
71175;DHT22;58876;51.994;4.472;2023-10-09T10:02:20;21.69;67.72
71175;DHT22;58876;51.994;4.472;2023-10-09T10:04:53;21.66;68.59
71175;DHT22;58876;51.994;4.472;2023-10-09T10:07:23;21.75;67.74
71175;DHT22;58876;51.994;4.472;2023-10-09T10:09:50;21.73;68.14
71175;DHT22;58876;51.994;4.472;2023-10-09T10:16:04;21.68;68.59
71175;DHT22;58876;51.994;4.472;2023-10-09T10:18:58;21.85;68.53
71175;DHT22;58876;51.994;4.472;2023-10-09T10:21:50;21.66;68.68
71175;DHT22;58876;51.994;4.472;2023-10-09T10:27:17;21.84;69.90
71175;DHT22;58876;51.994;4.472;2023-10-09T10:32:56;22.32;67.75
71175;DHT22;58876;51.994;4.472;2023-10-09T10:35:23;22.35;68.26
71175;DHT22;58876;51.994;4.472;2023-10-09T10:40:50;22.44;67.43
71175;DHT22;58876;51.994;4.472;2023-10-09T10:43:26;22.50;67.14
71175;DHT22;58876;51.994;4.472;2023-10-09T10:46:05;22.35;67.72
71175;DHT22;58876;51.994;4.472;2023-10-09T10:48:40;22.28;67.77
71175;DHT22;58876;51.994;4.472;2023-10-09T10:51:15;22.05;67.08
71175;DHT22;58876;51.994;4.472;2023-10-09T10:53:53;22.12;68.57
71175;DHT22;58876;51.994;4.472;2023-10-09T10:56:24;22.17;68.14
71175;DHT22;58876;51.994;4.472;2023-10-09T10:59:00;21.99;68.32
71175;DHT22;58876;51.994;4.472;2023-10-09T11:01:37;22.17;68.35
71175;DHT22;58876;51.994;4.472;2023-10-09T11:04:24;22.17;66.79
71175;DHT22;58876;51.994;4.472;2023-10-09T11:06:53;22.35;67.20
71175;DHT22;58876;51.994;4.472;2023-10-09T11:09:25;22.61;66.15
71175;DHT22;58876;51.994;4.472;2023-10-09T11:12:05;22.90;67.10
71175;DHT22;58876;51.994;4.472;2023-10-09T11:14:49;23.08;65.95
71175;DHT22;58876;51.994;4.472;2023-10-09T11:17:40;22.97;65.40
71175;DHT22;58876;51.994;4.472;2023-10-09T11:20:06;22.75;65.22
71175;DHT22;58876;51.994;4.472;2023-10-09T11:22:52;22.70;66.68
71175;DHT22;58876;51.994;4.472;2023-10-09T11:25:43;22.92;66.21
71175;DHT22;58876;51.994;4.472;2023-10-09T11:28:24;23.15;65.90
71175;DHT22;58876;51.994;4.472;2023-10-09T11:31:05;23.46;64.93
71175;DHT22;58876;51.994;4.472;2023-10-09T11:33:43;23.46;63.77
71175;DHT22;58876;51.994;4.472;2023-10-09T11:36:08;23.59;64.42
71175;DHT22;58876;51.994;4.472;2023-10-09T11:38:38;23.46;64.07
71175;DHT22;58876;51.994;4.472;2023-10-09T11:41:16;23.29;63.56
71175;DHT22;58876;51.994;4.472;2023-10-09T11:43:52;23.18;64.63
71175;DHT22;58876;51.994;4.472;2023-10-09T11:46:20;23.12;65.42
71175;DHT22;58876;51.994;4.472;2023-10-09T11:49:24;22.97;65.53
71175;DHT22;58876;51.994;4.472;2023-10-09T11:52:09;22.73;66.10
71175;DHT22;58876;51.994;4.472;2023-10-09T11:54:38;22.73;67.08
71175;DHT22;58876;51.994;4.472;2023-10-09T11:57:04;22.65;66.88
71175;DHT22;58876;51.994;4.472;2023-10-09T11:59:31;22.63;67.00
71175;DHT22;58876;51.994;4.472;2023-10-09T12:02:07;22.56;66.68
71175;DHT22;58876;51.994;4.472;2023-10-09T12:04:37;22.37;67.09
71175;DHT22;58876;51.994;4.472;2023-10-09T12:07:08;22.23;67.98
71175;DHT22;58876;51.994;4.472;2023-10-09T12:09:35;22.28;67.26
71175;DHT22;58876;51.994;4.472;2023-10-09T12:12:03;22.33;68.02
71175;DHT22;58876;51.994;4.472;2023-10-09T12:14:29;22.49;67.21
71175;DHT22;58876;51.994;4.472;2023-10-09T12:17:02;22.29;67.33
71175;DHT22;58876;51.994;4.472;2023-10-09T12:19:37;22.22;67.55
71175;DHT22;58876;51.994;4.472;2023-10-09T12:22:07;22.29;68.36
71175;DHT22;58876;51.994;4.472;2023-10-09T12:24:41;22.19;67.96
71175;DHT22;58876;51.994;4.472;2023-10-09T12:27:09;22.30;67.25
71175;DHT22;58876;51.994;4.472;2023-10-09T12:29:38;22.43;66.61
71175;DHT22;58876;51.994;4.472;2023-10-09T12:32:09;22.42;66.60
71175;DHT22;58876;51.994;4.472;2023-10-09T12:34:36;22.29;67.56
71175;DHT22;58876;51.994;4.472;2023-10-09T12:37:04;22.36;67.81
71175;DHT22;58876;51.994;4.472;2023-10-09T12:39:30;22.25;67.23
71175;DHT22;58876;51.994;4.472;2023-10-09T12:42:02;22.09;68.30
71175;DHT22;58876;51.994;4.472;2023-10-09T12:44:34;22.09;67.65
71175;DHT22;58876;51.994;4.472;2023-10-09T12:47:05;22.02;68.34
71175;DHT22;58876;51.994;4.472;2023-10-09T12:49:31;22.10;68.39
71175;DHT22;58876;51.994;4.472;2023-10-09T12:51:56;22.12;68.01
71175;DHT22;58876;51.994;4.472;2023-10-09T12:54:25;22.12;67.82
71175;DHT22;58876;51.994;4.472;2023-10-09T12:56:56;21.92;68.74
71175;DHT22;58876;51.994;4.472;2023-10-09T12:59:21;21.98;68.94
71175;DHT22;58876;51.994;4.472;2023-10-09T13:01:48;21.98;68.64
71175;DHT22;58876;51.994;4.472;2023-10-09T13:04:23;22.28;68.81
71175;DHT22;58876;51.994;4.472;2023-10-09T13:06:49;22.52;67.58
71175;DHT22;58876;51.994;4.472;2023-10-09T13:09:17;22.54;67.19
71175;DHT22;58876;51.994;4.472;2023-10-09T13:11:50;22.60;67.31
71175;DHT22;58876;51.994;4.472;2023-10-09T13:14:16;22.77;67.66
71175;DHT22;58876;51.994;4.472;2023-10-09T13:16:45;22.86;66.33
71175;DHT22;58876;51.994;4.472;2023-10-09T13:19:11;22.92;66.36
71175;DHT22;58876;51.994;4.472;2023-10-09T13:21:37;22.81;65.85
71175;DHT22;58876;51.994;4.472;2023-10-09T13:24:06;22.39;67.08
71175;DHT22;58876;51.994;4.472;2023-10-09T13:26:39;22.33;67.29
71175;DHT22;58876;51.994;4.472;2023-10-09T13:29:06;22.36;67.23
71175;DHT22;58876;51.994;4.472;2023-10-09T13:31:35;22.54;67.99
71175;DHT22;58876;51.994;4.472;2023-10-09T13:34:04;22.86;67.55
71175;DHT22;58876;51.994;4.472;2023-10-09T13:36:32;22.98;66.78
71175;DHT22;58876;51.994;4.472;2023-10-09T13:39:03;22.95;66.02
71175;DHT22;58876;51.994;4.472;2023-10-09T13:41:48;22.74;66.85
71175;DHT22;58876;51.994;4.472;2023-10-09T13:44:14;22.75;67.23
71175;DHT22;58876;51.994;4.472;2023-10-09T13:46:40;22.64;66.78
71175;DHT22;58876;51.994;4.472;2023-10-09T13:49:09;22.71;67.22
71175;DHT22;58876;51.994;4.472;2023-10-09T13:51:43;22.65;67.24
71175;DHT22;58876;51.994;4.472;2023-10-09T13:54:13;22.67;67.82
71175;DHT22;58876;51.994;4.472;2023-10-09T13:56:54;22.56;67.86
71175;DHT22;58876;51.994;4.472;2023-10-09T13:59:23;22.61;67.70
71175;DHT22;58876;51.994;4.472;2023-10-09T14:01:53;22.74;67.20
71175;DHT22;58876;51.994;4.472;2023-10-09T14:04:23;23.18;66.47
71175;DHT22;58876;51.994;4.472;2023-10-09T14:06:50;23.26;65.11
71175;DHT22;58876;51.994;4.472;2023-10-09T14:09:27;23.79;64.81
71175;DHT22;58876;51.994;4.472;2023-10-09T14:12:00;23.87;64.22
71175;DHT22;58876;51.994;4.472;2023-10-09T14:14:40;24.11;63.87
71175;DHT22;58876;51.994;4.472;2023-10-09T14:17:15;23.63;64.50
71175;DHT22;58876;51.994;4.472;2023-10-09T14:19:46;23.63;66.04
71175;DHT22;58876;51.994;4.472;2023-10-09T14:22:17;23.66;65.15
71175;DHT22;58876;51.994;4.472;2023-10-09T14:24:47;22.98;65.86
71175;DHT22;58876;51.994;4.472;2023-10-09T14:27:16;22.78;67.68
71175;DHT22;58876;51.994;4.472;2023-10-09T14:29:48;22.57;68.08
71175;DHT22;58876;51.994;4.472;2023-10-09T14:32:15;22.50;68.13
71175;DHT22;58876;51.994;4.472;2023-10-09T14:34:44;22.36;68.73
71175;DHT22;58876;51.994;4.472;2023-10-09T14:37:16;22.26;69.40
71175;DHT22;58876;51.994;4.472;2023-10-09T14:39:44;22.12;68.97
71175;DHT22;58876;51.994;4.472;2023-10-09T14:42:17;22.06;70.24
71175;DHT22;58876;51.994;4.472;2023-10-09T14:44:44;21.99;69.80
71175;DHT22;58876;51.994;4.472;2023-10-09T14:47:13;21.95;70.26
71175;DHT22;58876;51.994;4.472;2023-10-09T14:49:40;21.82;70.32
71175;DHT22;58876;51.994;4.472;2023-10-09T14:52:10;21.77;71.33
71175;DHT22;58876;51.994;4.472;2023-10-09T14:54:36;21.75;70.65
71175;DHT22;58876;51.994;4.472;2023-10-09T14:57:03;21.50;71.46
71175;DHT22;58876;51.994;4.472;2023-10-09T14:59:34;21.58;71.22
71175;DHT22;58876;51.994;4.472;2023-10-09T15:02:00;21.61;71.16
71175;DHT22;58876;51.994;4.472;2023-10-09T15:04:26;21.64;71.42
71175;DHT22;58876;51.994;4.472;2023-10-09T15:06:52;21.68;70.95
71175;DHT22;58876;51.994;4.472;2023-10-09T15:09:18;21.58;71.24
71175;DHT22;58876;51.994;4.472;2023-10-09T15:11:54;21.53;71.52
71175;DHT22;58876;51.994;4.472;2023-10-09T15:14:20;21.64;71.64
71175;DHT22;58876;51.994;4.472;2023-10-09T15:16:49;21.86;71.17
71175;DHT22;58876;51.994;4.472;2023-10-09T15:19:16;21.94;70.86
71175;DHT22;58876;51.994;4.472;2023-10-09T15:21:42;21.94;70.42
71175;DHT22;58876;51.994;4.472;2023-10-09T15:24:15;21.94;70.77
71175;DHT22;58876;51.994;4.472;2023-10-09T15:26:42;21.74;70.98
71175;DHT22;58876;51.994;4.472;2023-10-09T15:29:07;21.41;71.91
71175;DHT22;58876;51.994;4.472;2023-10-09T15:31:35;21.28;72.48
71175;DHT22;58876;51.994;4.472;2023-10-09T15:34:01;21.28;72.90
71175;DHT22;58876;51.994;4.472;2023-10-09T15:36:27;21.22;72.80
71175;DHT22;58876;51.994;4.472;2023-10-09T15:38:56;21.17;72.96
71175;DHT22;58876;51.994;4.472;2023-10-09T15:41:28;21.20;73.67
71175;DHT22;58876;51.994;4.472;2023-10-09T15:43:58;21.24;73.41
71175;DHT22;58876;51.994;4.472;2023-10-09T15:46:24;21.36;73.56
71175;DHT22;58876;51.994;4.472;2023-10-09T15:48:51;21.30;73.31
71175;DHT22;58876;51.994;4.472;2023-10-09T15:51:19;21.31;73.41
71175;DHT22;58876;51.994;4.472;2023-10-09T15:53:46;21.16;73.49
71175;DHT22;58876;51.994;4.472;2023-10-09T15:56:13;20.97;74.23
71175;DHT22;58876;51.994;4.472;2023-10-09T15:58:41;20.99;74.55
71175;DHT22;58876;51.994;4.472;2023-10-09T16:01:14;20.99;74.42
71175;DHT22;58876;51.994;4.472;2023-10-09T16:03:44;20.95;74.80
71175;DHT22;58876;51.994;4.472;2023-10-09T16:06:10;20.79;75.26
71175;DHT22;58876;51.994;4.472;2023-10-09T16:08:43;20.66;75.54
71175;DHT22;58876;51.994;4.472;2023-10-09T16:11:11;20.61;75.96
71175;DHT22;58876;51.994;4.472;2023-10-09T16:13:38;20.56;76.31
71175;DHT22;58876;51.994;4.472;2023-10-09T16:16:05;20.65;75.69
71175;DHT22;58876;51.994;4.472;2023-10-09T16:18:35;20.59;75.87
71175;DHT22;58876;51.994;4.472;2023-10-09T16:21:01;20.35;76.16
71175;DHT22;58876;51.994;4.472;2023-10-09T16:23:31;20.39;76.07
71175;DHT22;58876;51.994;4.472;2023-10-09T16:25:57;20.39;76.24
71175;DHT22;58876;51.994;4.472;2023-10-09T16:28:23;20.37;75.87
71175;DHT22;58876;51.994;4.472;2023-10-09T16:30:48;20.35;75.90